createdAt,value
2023-02-14T00:00:27.758Z,11.88
2023-02-14T00:02:54.539Z,13.68
2023-02-14T00:05:21.235Z,12.55
2023-02-14T00:07:47.798Z,12.57
2023-02-14T00:10:15.027Z,13.15
2023-02-14T00:12:41.579Z,12.90
2023-02-14T00:15:25.184Z,12.55
2023-02-14T00:17:54.640Z,13.55
2023-02-14T00:20:24.359Z,13.52
2023-02-14T00:22:51.006Z,13.68
2023-02-14T00:25:18.293Z,13.48
2023-02-14T00:27:45.155Z,13.25
2023-02-14T00:30:13.168Z,11.27
2023-02-14T00:32:41.106Z,10.10
2023-02-14T00:35:08.983Z,11.90
2023-02-14T00:37:35.877Z,11.40
2023-02-14T00:40:02.492Z,12.75
2023-02-14T00:42:29.112Z,11.88
2023-02-14T00:44:55.704Z,11.75
2023-02-14T00:47:22.276Z,12.18
2023-02-14T00:49:48.877Z,12.50
2023-02-14T00:52:15.521Z,11.43
2023-02-14T00:54:42.159Z,12.52
2023-02-14T00:57:08.784Z,11.50
2023-02-14T00:59:35.394Z,11.85
2023-02-14T01:02:01.993Z,13.02
2023-02-14T01:04:28.563Z,12.30
2023-02-14T01:06:55.117Z,11.75
2023-02-14T01:09:21.676Z,11.77
2023-02-14T01:11:48.804Z,11.38
2023-02-14T01:14:15.693Z,11.40
2023-02-14T01:16:42.295Z,12.15
2023-02-14T01:19:09.371Z,11.48
2023-02-14T01:21:36.025Z,11.85
2023-02-14T01:24:04.897Z,11.98
2023-02-14T01:26:31.886Z,12.80
2023-02-14T01:28:58.471Z,13.50
2023-02-14T01:31:30.501Z,13.10
2023-02-14T01:33:57.743Z,13.13
2023-02-14T01:36:26.764Z,12.40
2023-02-14T01:38:58.486Z,13.13
2023-02-14T01:41:26.970Z,13.02
2023-02-14T01:46:33.775Z,12.77
2023-02-14T01:49:03.083Z,12.60
2023-02-14T01:51:30.397Z,12.60
2023-02-14T01:53:57.096Z,13.23
2023-02-14T01:56:30.894Z,14.15
2023-02-14T01:59:00.165Z,14.35
2023-02-14T02:01:27.530Z,13.35
2023-02-14T02:03:56.126Z,13.95
2023-02-14T02:06:45.270Z,12.15
2023-02-14T02:09:38.695Z,11.68
2023-02-14T02:12:05.435Z,12.10
2023-02-14T02:14:32.230Z,13.10
2023-02-14T02:17:03.537Z,13.10
2023-02-14T02:19:38.932Z,12.35
2023-02-14T02:22:23.482Z,12.93
2023-02-14T02:25:02.055Z,12.18
2023-02-14T02:27:46.246Z,12.65
2023-02-14T02:30:32.401Z,12.02
2023-02-14T02:33:03.607Z,12.02
2023-02-14T02:36:04.240Z,13.05
2023-02-14T02:38:55.117Z,12.10
2023-02-14T02:41:44.610Z,12.88
2023-02-14T02:44:46.673Z,12.07
2023-02-14T02:47:27.823Z,12.60
2023-02-14T02:50:23.162Z,13.02
2023-02-14T02:53:06.183Z,14.73
2023-02-14T02:56:06.617Z,14.02
2023-02-14T02:58:58.531Z,14.63
2023-02-14T03:01:29.537Z,14.00
2023-02-14T03:04:17.723Z,14.30
2023-02-14T03:09:20.712Z,14.63
2023-02-14T03:11:55.589Z,14.93
2023-02-14T03:14:47.978Z,14.85
2023-02-14T03:17:37.470Z,14.20
2023-02-14T03:20:41.500Z,15.48
2023-02-14T03:23:16.674Z,14.68
2023-02-14T03:25:49.667Z,15.55
2023-02-14T03:28:53.827Z,14.90
2023-02-14T03:31:27.228Z,13.68
2023-02-14T03:34:01.663Z,13.63
2023-02-14T03:36:36.583Z,14.50
2023-02-14T03:39:08.058Z,15.63
2023-02-14T03:41:38.893Z,13.73
2023-02-14T03:44:07.701Z,13.07
2023-02-14T03:46:38.124Z,13.27
2023-02-14T03:49:08.963Z,14.93
2023-02-14T03:51:36.089Z,14.45
2023-02-14T03:54:04.997Z,13.75
2023-02-14T03:56:42.340Z,12.90
2023-02-14T03:59:27.887Z,12.93
2023-02-14T04:02:13.207Z,12.05
2023-02-14T04:04:43.607Z,11.05
2023-02-14T04:07:16.061Z,11.77
2023-02-14T04:09:42.900Z,10.68
2023-02-14T04:12:09.766Z,11.32
2023-02-14T04:14:36.591Z,11.52
2023-02-14T04:17:21.837Z,12.07
2023-02-14T04:19:48.421Z,10.68
2023-02-14T04:22:15.292Z,9.93
2023-02-14T04:24:41.861Z,9.70
2023-02-14T04:27:11.518Z,11.43
2023-02-14T04:29:46.862Z,12.65
2023-02-14T04:32:15.625Z,11.77
2023-02-14T04:34:42.600Z,12.05
2023-02-14T04:37:09.610Z,12.07
2023-02-14T04:39:36.454Z,10.40
2023-02-14T04:42:04.079Z,11.18
2023-02-14T04:44:30.685Z,11.40
2023-02-14T04:46:57.302Z,12.60
2023-02-14T04:49:23.872Z,10.20
2023-02-14T04:51:50.431Z,11.00
2023-02-14T04:54:17.140Z,10.82
2023-02-14T04:56:43.922Z,11.70
2023-02-14T04:59:10.559Z,11.02
2023-02-14T05:01:37.237Z,10.35
2023-02-14T05:04:03.999Z,10.90
2023-02-14T05:06:30.589Z,9.50
2023-02-14T05:08:57.189Z,9.60
2023-02-14T05:11:23.924Z,10.50
2023-02-14T05:13:50.658Z,10.25
2023-02-14T05:16:17.268Z,9.60
2023-02-14T05:18:43.886Z,9.98
2023-02-14T05:21:10.943Z,10.40
2023-02-14T05:23:37.934Z,10.35
2023-02-14T05:26:04.760Z,10.10
2023-02-14T05:28:31.763Z,9.70
2023-02-14T05:30:59.075Z,8.93
2023-02-14T05:33:26.440Z,10.48
2023-02-14T05:35:53.399Z,9.32
2023-02-14T05:38:20.086Z,9.00
2023-02-14T05:40:46.656Z,9.05
2023-02-14T05:43:13.342Z,10.32
2023-02-14T05:45:40.028Z,8.43
2023-02-14T05:48:06.913Z,9.55
2023-02-14T05:50:33.593Z,10.05
2023-02-14T05:53:00.878Z,10.68
2023-02-14T05:55:27.523Z,9.98
2023-02-14T05:57:54.332Z,10.13
2023-02-14T06:00:21.794Z,10.35
2023-02-14T06:02:48.372Z,10.17
2023-02-14T06:05:17.832Z,10.63
2023-02-14T06:07:50.473Z,10.18
2023-02-14T06:10:19.138Z,11.25
2023-02-14T06:12:46.337Z,11.15
2023-02-14T06:15:12.924Z,11.02
2023-02-14T06:17:39.567Z,10.52
2023-02-14T06:20:07.208Z,9.32
2023-02-14T06:22:33.832Z,9.95
2023-02-14T06:25:00.389Z,8.60
2023-02-14T06:27:27.059Z,10.43
2023-02-14T06:29:53.664Z,9.90
2023-02-14T06:32:20.300Z,9.93
2023-02-14T06:34:47.303Z,9.57
2023-02-14T06:37:14.064Z,9.32
2023-02-14T06:39:40.643Z,9.15
2023-02-14T06:42:07.280Z,8.55
2023-02-14T06:44:33.871Z,10.02
2023-02-14T06:47:00.439Z,10.40
2023-02-14T06:49:27.018Z,9.57
2023-02-14T06:51:53.630Z,9.60
2023-02-14T06:54:20.167Z,10.40
2023-02-14T06:56:46.742Z,10.00
2023-02-14T06:59:13.286Z,10.23
2023-02-14T07:01:39.895Z,9.98
2023-02-14T07:04:06.452Z,10.23
2023-02-14T07:06:33.057Z,11.52
2023-02-14T07:08:59.640Z,11.07
2023-02-14T07:11:26.417Z,10.30
2023-02-14T07:13:52.983Z,10.45
2023-02-14T07:16:19.568Z,10.65
2023-02-14T07:18:46.177Z,10.73
2023-02-14T07:21:12.963Z,9.88
2023-02-14T07:23:39.616Z,10.68
2023-02-14T07:26:06.203Z,10.60
2023-02-14T07:28:33.726Z,11.32
2023-02-14T07:31:01.610Z,12.73
2023-02-14T07:33:28.446Z,12.52
2023-02-14T07:35:55.027Z,12.70
2023-02-14T07:38:21.553Z,11.85
2023-02-14T07:40:48.149Z,11.55
2023-02-14T07:43:14.702Z,12.20
2023-02-14T07:45:41.286Z,10.95
2023-02-14T07:48:07.885Z,11.93
2023-02-14T07:50:34.470Z,11.55
2023-02-14T07:53:01.056Z,11.63
2023-02-14T07:55:27.625Z,11.60
2023-02-14T07:57:54.213Z,12.00
2023-02-14T08:00:21.510Z,12.75
2023-02-14T08:02:49.484Z,11.68
2023-02-14T08:05:17.217Z,10.48
2023-02-14T08:07:44.378Z,11.65
2023-02-14T08:10:12.985Z,10.60
2023-02-14T08:12:58.261Z,12.32
2023-02-14T08:15:51.654Z,12.38
2023-02-14T08:18:19.299Z,11.45
2023-02-14T08:20:47.226Z,11.52
2023-02-14T08:23:13.878Z,13.00
2023-02-14T08:25:40.649Z,11.65
2023-02-14T08:28:07.346Z,12.38
2023-02-14T08:30:37.058Z,12.98
2023-02-14T08:33:04.169Z,13.82
2023-02-14T08:35:30.789Z,14.63
2023-02-14T08:37:57.401Z,14.43
2023-02-14T08:40:24.047Z,13.63
2023-02-14T08:42:50.790Z,11.90
2023-02-14T08:45:17.499Z,12.98
2023-02-14T08:47:44.063Z,12.23
2023-02-14T08:50:15.072Z,13.45
2023-02-14T08:52:43.844Z,13.15
2023-02-14T08:55:11.281Z,11.52
2023-02-14T08:57:38.365Z,12.13
2023-02-14T09:00:06.193Z,11.27
2023-02-14T09:02:32.772Z,10.15
2023-02-14T09:04:59.324Z,11.18
2023-02-14T09:07:26.183Z,10.77
2023-02-14T09:09:52.767Z,11.10
2023-02-14T09:12:19.401Z,11.13
2023-02-14T09:14:45.998Z,11.02
2023-02-14T09:17:13.835Z,10.45
2023-02-14T09:19:40.618Z,10.80
2023-02-14T09:22:09.295Z,11.63
2023-02-14T09:24:37.782Z,10.20
2023-02-14T09:29:31.495Z,9.98
2023-02-14T09:32:00.533Z,10.00
2023-02-14T09:34:46.645Z,10.27
2023-02-14T09:37:32.604Z,10.18
2023-02-14T09:40:00.427Z,10.50
2023-02-14T09:42:30.009Z,9.93
2023-02-14T09:45:11.865Z,11.77
2023-02-14T09:47:48.969Z,10.18
2023-02-14T09:50:23.232Z,11.40
2023-02-14T09:52:52.433Z,10.13
2023-02-14T09:55:19.446Z,10.38
2023-02-14T09:57:57.349Z,9.90
2023-02-14T10:01:10.752Z,10.40
2023-02-14T10:03:52.471Z,10.02
2023-02-14T10:06:28.088Z,11.55
2023-02-14T10:08:54.614Z,9.73
2023-02-14T10:11:23.164Z,10.25
2023-02-14T10:16:40.529Z,11.20
2023-02-14T10:19:08.130Z,11.40
2023-02-14T10:21:41.574Z,10.63
2023-02-14T10:24:28.227Z,11.02
2023-02-14T10:27:02.340Z,10.18
2023-02-14T10:29:28.982Z,9.20
2023-02-14T10:32:05.193Z,11.32
2023-02-14T10:34:37.842Z,11.82
2023-02-14T10:37:13.201Z,9.98
2023-02-14T10:39:42.761Z,11.43
2023-02-14T10:42:15.291Z,11.52
2023-02-14T10:45:25.266Z,11.40
2023-02-14T10:48:21.603Z,12.52
2023-02-14T10:50:57.825Z,12.02
2023-02-14T10:53:53.378Z,12.40
2023-02-14T10:56:45.545Z,11.50
2023-02-14T10:59:26.656Z,11.50
2023-02-14T11:01:54.274Z,12.23
2023-02-14T11:04:23.502Z,10.60
2023-02-14T11:06:51.000Z,10.35
2023-02-14T11:09:18.349Z,11.00
2023-02-14T11:11:54.679Z,10.40
2023-02-14T11:14:24.393Z,10.57
2023-02-14T11:16:54.394Z,10.70
2023-02-14T11:19:24.463Z,9.60
2023-02-14T11:21:52.465Z,10.88
2023-02-14T11:24:32.745Z,10.60
2023-02-14T11:27:04.482Z,10.73
2023-02-14T11:29:41.194Z,11.32
2023-02-14T11:32:10.817Z,10.05
2023-02-14T11:34:40.319Z,10.20
2023-02-14T11:37:22.354Z,11.60
2023-02-14T11:39:55.265Z,10.32
2023-02-14T11:42:37.184Z,11.45
2023-02-14T11:45:05.341Z,11.52
2023-02-14T11:47:34.339Z,10.95
2023-02-14T11:50:06.100Z,10.60
2023-02-14T11:52:33.813Z,12.13
2023-02-14T11:55:00.618Z,10.37
2023-02-14T11:57:33.094Z,10.13
2023-02-14T12:00:01.306Z,10.63
2023-02-14T12:02:38.765Z,11.13
2023-02-14T12:05:26.115Z,10.05
2023-02-14T12:07:54.507Z,10.30
2023-02-14T12:10:21.085Z,10.18
2023-02-14T12:12:54.998Z,11.05
2023-02-14T12:15:24.602Z,9.98
2023-02-14T12:18:01.662Z,9.82
2023-02-14T12:20:56.538Z,9.77
2023-02-14T12:23:44.000Z,9.02
2023-02-14T12:26:35.860Z,9.00
2023-02-14T12:29:14.523Z,9.38
2023-02-14T12:31:42.110Z,8.98
2023-02-14T12:34:11.615Z,10.03
2023-02-14T12:36:59.956Z,9.05
2023-02-14T12:42:35.070Z,9.27
2023-02-14T12:45:20.533Z,8.20
2023-02-14T12:48:00.030Z,8.85
2023-02-14T12:50:36.062Z,8.20
2023-02-14T12:53:28.693Z,8.55
2023-02-14T12:56:16.438Z,8.88
2023-02-14T12:59:16.015Z,8.43
2023-02-14T13:01:57.969Z,8.43
2023-02-14T13:04:27.768Z,7.05
2023-02-14T13:06:59.885Z,7.75
2023-02-14T13:09:42.091Z,8.35
2023-02-14T13:12:35.560Z,7.40
2023-02-14T13:15:11.705Z,7.50
2023-02-14T13:18:13.964Z,6.95
2023-02-14T13:20:44.271Z,7.15
2023-02-14T13:23:35.685Z,7.13
2023-02-14T13:26:02.209Z,6.35
2023-02-14T13:28:30.442Z,6.47
2023-02-14T13:30:58.608Z,6.63
2023-02-14T13:33:36.619Z,6.55
2023-02-14T13:36:06.596Z,5.70
2023-02-14T13:38:37.984Z,5.63
2023-02-14T13:41:05.497Z,6.30
2023-02-14T13:44:00.160Z,5.47
2023-02-14T13:46:33.006Z,5.05
2023-02-14T13:49:24.224Z,5.28
2023-02-14T13:51:53.724Z,5.13
2023-02-14T13:54:31.510Z,5.78
2023-02-14T13:57:01.320Z,5.57
2023-02-14T13:59:33.022Z,5.22
2023-02-14T14:02:30.234Z,6.03
2023-02-14T14:04:57.213Z,5.65
2023-02-14T14:07:30.862Z,6.00
2023-02-14T14:09:59.925Z,5.25
2023-02-14T14:12:26.526Z,5.82
2023-02-14T14:15:05.423Z,4.90
2023-02-14T14:17:37.058Z,4.90
2023-02-14T14:20:21.846Z,5.43
2023-02-14T14:22:49.690Z,6.22
2023-02-14T14:25:34.162Z,5.95
2023-02-14T14:28:00.994Z,5.95
2023-02-14T14:30:33.045Z,5.93
2023-02-14T14:33:23.819Z,5.35
2023-02-14T14:35:58.080Z,5.78
2023-02-14T14:38:25.647Z,5.10
2023-02-14T14:40:53.075Z,6.18
2023-02-14T14:43:28.086Z,6.28
2023-02-14T14:45:56.715Z,5.78
2023-02-14T14:48:35.489Z,6.28
2023-02-14T14:51:04.447Z,6.60
2023-02-14T14:53:46.087Z,7.07
2023-02-14T14:56:23.522Z,6.20
2023-02-14T14:58:50.106Z,5.97
2023-02-14T15:01:39.328Z,5.65
2023-02-14T15:04:25.174Z,5.57
2023-02-14T15:06:52.344Z,4.85
2023-02-14T15:09:32.196Z,6.07
2023-02-14T15:12:19.994Z,4.85
2023-02-14T15:14:54.388Z,5.00
2023-02-14T15:17:22.938Z,4.88
2023-02-14T15:22:25.632Z,5.30
2023-02-14T15:24:52.638Z,4.80
2023-02-14T15:27:22.115Z,4.65
2023-02-14T15:30:09.666Z,4.60
2023-02-14T15:32:37.406Z,5.20
2023-02-14T15:35:06.231Z,5.30
2023-02-14T15:37:33.552Z,5.32
2023-02-14T15:40:00.789Z,5.35
2023-02-14T15:42:29.321Z,5.25
2023-02-14T15:47:46.627Z,4.88
2023-02-14T15:50:19.642Z,4.88
2023-02-14T15:52:46.946Z,4.97
2023-02-14T15:55:19.394Z,6.13
2023-02-14T15:57:59.146Z,5.55
2023-02-14T16:00:26.750Z,5.57
2023-02-14T16:03:00.277Z,5.03
2023-02-14T16:05:27.343Z,5.22
2023-02-14T16:08:05.717Z,5.15
2023-02-14T16:13:14.832Z,4.43
2023-02-14T16:16:05.162Z,4.50
2023-02-14T16:18:33.699Z,4.90
2023-02-14T16:21:17.105Z,5.38
2023-02-14T16:23:45.994Z,5.63
2023-02-14T16:26:13.335Z,5.72
2023-02-14T16:28:41.461Z,5.68
2023-02-14T16:31:15.353Z,8.48
2023-02-14T16:33:42.140Z,6.03
2023-02-14T16:36:22.824Z,5.85
2023-02-14T16:38:50.781Z,5.80
2023-02-14T16:41:22.323Z,5.70
2023-02-14T16:43:49.169Z,6.32
2023-02-14T16:46:18.312Z,6.47
2023-02-14T16:48:45.759Z,7.25
2023-02-14T16:51:16.229Z,7.55
2023-02-14T16:53:43.525Z,10.80
2023-02-14T16:56:15.782Z,13.95
2023-02-14T16:58:42.643Z,14.18
2023-02-14T17:01:09.508Z,21.33
2023-02-14T17:03:36.114Z,16.98
2023-02-14T17:06:03.140Z,14.40
2023-02-14T17:08:29.946Z,11.10
2023-02-14T17:10:57.326Z,9.80
2023-02-14T17:13:25.584Z,8.57
2023-02-14T17:15:53.121Z,8.05
2023-02-14T17:18:21.401Z,11.17
2023-02-14T17:20:48.362Z,12.27
2023-02-14T17:23:15.565Z,13.70
2023-02-14T17:25:42.157Z,15.25
2023-02-14T17:28:08.732Z,17.67
2023-02-14T17:30:35.437Z,22.50
2023-02-14T17:33:01.993Z,26.85
2023-02-14T17:35:28.647Z,21.10
2023-02-14T17:37:55.254Z,21.27
2023-02-14T17:40:21.859Z,16.73
2023-02-14T17:42:48.679Z,11.57
2023-02-14T17:45:15.402Z,10.18
2023-02-14T17:47:43.312Z,10.60
2023-02-14T17:50:10.197Z,12.93
2023-02-14T17:52:37.113Z,12.63
2023-02-14T17:55:03.951Z,10.43
2023-02-14T17:57:31.189Z,11.20
2023-02-14T18:00:01.911Z,12.82
2023-02-14T18:02:28.853Z,12.02
2023-02-14T18:04:57.771Z,10.40
2023-02-14T18:07:24.951Z,11.40
2023-02-14T18:09:51.544Z,10.80
2023-02-14T18:12:18.225Z,10.65
2023-02-14T18:14:44.783Z,9.43
2023-02-14T18:17:14.300Z,10.05
2023-02-14T18:19:40.856Z,13.95
2023-02-14T18:22:07.503Z,12.45
2023-02-14T18:24:34.124Z,11.10
2023-02-14T18:27:00.662Z,9.52
2023-02-14T18:29:27.250Z,10.32
2023-02-14T18:31:53.918Z,11.50
2023-02-14T18:34:20.596Z,10.57
2023-02-14T18:36:47.212Z,11.60
2023-02-14T18:39:13.832Z,12.20
2023-02-14T18:41:40.453Z,13.23
2023-02-14T18:44:07.345Z,11.88
2023-02-14T18:46:35.710Z,12.50
2023-02-14T18:49:04.277Z,13.68
2023-02-14T18:54:00.417Z,12.90
2023-02-14T18:56:29.395Z,13.10
2023-02-14T18:59:04.371Z,30.27
2023-02-14T19:01:36.810Z,13.95
2023-02-14T19:04:06.373Z,13.55
2023-02-14T19:06:34.116Z,15.00
2023-02-14T19:09:01.783Z,24.90
2023-02-14T19:11:31.579Z,19.40
2023-02-14T19:14:00.082Z,15.93
2023-02-14T19:16:32.180Z,15.43
2023-02-14T19:18:59.864Z,15.10
2023-02-14T19:21:30.458Z,14.43
2023-02-14T19:23:57.766Z,11.50
2023-02-14T19:26:29.790Z,11.82
2023-02-14T19:28:58.137Z,12.75
2023-02-14T19:31:24.908Z,14.88
2023-02-14T19:33:52.499Z,13.30
2023-02-14T19:36:20.953Z,12.67
2023-02-14T19:38:50.361Z,15.60
2023-02-14T19:41:23.545Z,20.25
2023-02-14T19:43:51.444Z,19.35
2023-02-14T19:46:20.063Z,16.05
2023-02-14T19:51:25.803Z,18.05
2023-02-14T19:53:54.046Z,16.80
2023-02-14T19:56:25.947Z,14.18
2023-02-14T19:58:53.586Z,12.98
2023-02-14T20:01:46.246Z,12.27
2023-02-14T20:04:18.584Z,12.13
2023-02-14T20:06:45.803Z,13.07
2023-02-14T20:09:12.523Z,11.68
2023-02-14T20:11:50.008Z,13.32
2023-02-14T20:14:19.662Z,14.80
2023-02-14T20:16:46.706Z,16.08
2023-02-14T20:19:16.646Z,16.88
2023-02-14T20:21:48.148Z,28.27
2023-02-14T20:24:20.904Z,30.60
2023-02-14T20:26:47.987Z,27.00
2023-02-14T20:29:15.258Z,15.27
2023-02-14T20:31:44.991Z,60.47
2023-02-14T20:34:12.071Z,17.45
2023-02-14T20:36:39.122Z,12.93
2023-02-14T20:39:06.938Z,18.85
2023-02-14T20:41:36.815Z,16.45
2023-02-14T20:44:10.423Z,15.45
2023-02-14T20:46:37.173Z,21.13
2023-02-14T20:49:05.471Z,22.35
2023-02-14T20:51:32.241Z,17.20
2023-02-14T20:53:58.812Z,12.80
2023-02-14T20:56:25.339Z,12.73
2023-02-14T20:58:51.909Z,12.02
2023-02-14T21:01:24.490Z,11.10
2023-02-14T21:03:52.729Z,11.60
2023-02-14T21:06:22.403Z,11.88
2023-02-14T21:08:49.371Z,15.02
2023-02-14T21:11:17.772Z,12.82
2023-02-14T21:13:44.706Z,11.68
2023-02-14T21:16:16.560Z,11.18
2023-02-14T21:18:47.933Z,12.93
2023-02-14T21:21:36.317Z,11.30
2023-02-14T21:24:06.554Z,12.00
2023-02-14T21:26:33.275Z,11.05
2023-02-14T21:28:59.965Z,10.93
2023-02-14T21:31:26.744Z,10.70
2023-02-14T21:33:55.755Z,11.75
2023-02-14T21:36:24.342Z,11.40
2023-02-14T21:38:51.514Z,11.40
2023-02-14T21:41:22.946Z,11.23
2023-02-14T21:43:52.565Z,10.45
2023-02-14T21:46:31.128Z,10.93
2023-02-14T21:49:20.454Z,10.43
2023-02-14T21:51:47.825Z,10.23
2023-02-14T21:54:14.917Z,11.00
2023-02-14T21:56:42.087Z,10.52
2023-02-14T21:59:09.796Z,11.30
2023-02-14T22:01:38.415Z,10.60
2023-02-14T22:04:08.981Z,11.00
2023-02-14T22:06:37.412Z,10.63
2023-02-14T22:11:30.446Z,11.10
2023-02-14T22:13:57.024Z,11.45
2023-02-14T22:16:24.718Z,11.63
2023-02-14T22:18:51.575Z,11.43
2023-02-14T22:21:21.583Z,10.85
2023-02-14T22:23:48.491Z,11.02
2023-02-14T22:26:22.898Z,10.88
2023-02-14T22:28:51.692Z,10.90
2023-02-14T22:31:18.955Z,11.25
2023-02-14T22:33:46.498Z,11.13
2023-02-14T22:36:13.404Z,12.50
2023-02-14T22:38:40.136Z,11.05
2023-02-14T22:41:10.494Z,10.93
2023-02-14T22:43:37.633Z,11.05
2023-02-14T22:46:09.789Z,11.98
2023-02-14T22:48:37.351Z,11.63
2023-02-14T22:51:36.907Z,11.60
2023-02-14T22:54:05.991Z,11.75
2023-02-14T22:56:39.016Z,13.45
2023-02-14T22:59:13.136Z,11.68
2023-02-14T23:01:39.767Z,17.92
2023-02-14T23:04:06.497Z,14.93
2023-02-14T23:06:35.380Z,12.38
2023-02-14T23:09:06.907Z,16.02
2023-02-14T23:11:34.922Z,13.95
2023-02-14T23:14:20.139Z,38.40
2023-02-14T23:17:05.891Z,15.90
2023-02-14T23:19:53.268Z,11.85
2023-02-14T23:22:23.220Z,11.50
2023-02-14T23:24:51.985Z,11.35
2023-02-14T23:27:23.227Z,11.73
2023-02-14T23:29:49.856Z,10.77
2023-02-14T23:32:16.669Z,10.95
2023-02-14T23:34:44.741Z,11.18
2023-02-14T23:37:13.587Z,10.13
2023-02-14T23:39:40.823Z,11.30
2023-02-14T23:42:10.570Z,10.73
2023-02-14T23:44:37.313Z,11.98
2023-02-14T23:47:06.446Z,10.93
2023-02-14T23:49:34.325Z,11.02
2023-02-14T23:52:01.474Z,11.07
2023-02-14T23:54:28.196Z,10.65
2023-02-14T23:56:55.255Z,10.55
2023-02-14T23:59:22.301Z,10.82
